createdAt,value
2022-08-28T00:00:41.880Z,100302.41
2022-08-28T00:03:10.937Z,100301.94
2022-08-28T00:05:39.913Z,100301.75
2022-08-28T00:08:09.732Z,100309.22
2022-08-28T00:10:39.383Z,100304.25
2022-08-28T00:13:08.222Z,100305.09
2022-08-28T00:15:38.080Z,100312.56
2022-08-28T00:18:06.464Z,100315.03
2022-08-28T00:20:34.844Z,100315.72
2022-08-28T00:23:02.346Z,100317.97
2022-08-28T00:25:31.186Z,100318.47
2022-08-28T00:28:00.863Z,100316.53
2022-08-28T00:30:33.728Z,100312.34
2022-08-28T00:33:08.301Z,100322.00
2022-08-28T00:35:40.187Z,100318.16
2022-08-28T00:38:10.097Z,100319.09
2022-08-28T00:40:37.820Z,100315.53
2022-08-28T00:43:07.142Z,100308.97
2022-08-28T00:45:39.611Z,100305.19
2022-08-28T00:48:07.993Z,100306.94
2022-08-28T00:51:00.284Z,100300.41
2022-08-28T00:53:30.062Z,100301.91
2022-08-28T00:56:04.109Z,100301.03
2022-08-28T00:58:34.334Z,100300.19
2022-08-28T01:01:01.624Z,100289.63
2022-08-28T01:03:28.707Z,100294.81
2022-08-28T01:05:56.003Z,100287.81
2022-08-28T01:08:23.107Z,100290.69
2022-08-28T01:10:55.349Z,100294.19
2022-08-28T01:13:26.047Z,100307.81
2022-08-28T01:15:54.062Z,100304.06
2022-08-28T01:18:22.185Z,100304.44
2022-08-28T01:21:01.892Z,100306.75
2022-08-28T01:23:55.582Z,100313.66
2022-08-28T01:26:23.044Z,100315.53
2022-08-28T01:28:50.145Z,100310.09
2022-08-28T01:31:17.706Z,100312.59
2022-08-28T01:33:46.243Z,100313.59
2022-08-28T01:36:14.790Z,100305.72
2022-08-28T01:38:45.376Z,100313.06
2022-08-28T01:41:14.121Z,100307.69
2022-08-28T01:43:43.074Z,100311.44
2022-08-28T01:46:12.347Z,100308.44
2022-08-28T01:48:42.748Z,100310.72
2022-08-28T01:51:10.731Z,100306.59
2022-08-28T01:53:38.385Z,100305.59
2022-08-28T01:56:12.649Z,100303.84
2022-08-28T01:58:40.578Z,100301.09
2022-08-28T02:01:12.681Z,100308.19
2022-08-28T02:03:40.029Z,100300.28
2022-08-28T02:06:07.319Z,100296.66
2022-08-28T02:08:34.308Z,100299.03
2022-08-28T02:11:01.325Z,100296.06
2022-08-28T02:13:28.418Z,100298.09
2022-08-28T02:15:55.455Z,100297.44
2022-08-28T02:18:22.839Z,100303.66
2022-08-28T02:20:49.833Z,100295.78
2022-08-28T02:23:16.971Z,100307.59
2022-08-28T02:25:43.909Z,100301.03
2022-08-28T02:30:38.554Z,100318.72
2022-08-28T02:33:05.579Z,100305.09
2022-08-28T02:35:32.701Z,100309.59
2022-08-28T02:38:00.459Z,100316.22
2022-08-28T02:40:28.182Z,100316.22
2022-08-28T02:42:55.370Z,100306.16
2022-08-28T02:45:22.382Z,100306.47
2022-08-28T02:47:52.550Z,100307.19
2022-08-28T02:50:19.948Z,100314.28
2022-08-28T02:52:47.107Z,100311.84
2022-08-28T02:55:17.167Z,100314.09
2022-08-28T02:57:44.855Z,100318.22
2022-08-28T03:00:16.385Z,100327.63
2022-08-28T03:02:45.681Z,100331.69
2022-08-28T03:05:15.543Z,100336.06
2022-08-28T03:07:42.887Z,100333.91
2022-08-28T03:10:11.138Z,100336.34
2022-08-28T03:12:38.747Z,100333.00
2022-08-28T03:15:07.909Z,100337.56
2022-08-28T03:17:37.028Z,100337.50
2022-08-28T03:20:08.930Z,100340.09
2022-08-28T03:22:54.258Z,100339.69
2022-08-28T03:25:22.519Z,100339.50
2022-08-28T03:27:49.860Z,100341.25
2022-08-28T03:30:17.569Z,100341.66
2022-08-28T03:32:44.658Z,100346.31
2022-08-28T03:35:12.325Z,100347.34
2022-08-28T03:37:39.354Z,100341.44
2022-08-28T03:40:08.425Z,100340.47
2022-08-28T03:42:35.418Z,100343.41
2022-08-28T03:45:02.572Z,100331.94
2022-08-28T03:47:29.666Z,100342.47
2022-08-28T03:49:58.278Z,100345.16
2022-08-28T03:52:25.290Z,100346.78
2022-08-28T03:54:52.896Z,100353.94
2022-08-28T03:57:21.754Z,100355.78
2022-08-28T03:59:50.975Z,100357.50
2022-08-28T04:02:20.695Z,100361.88
2022-08-28T04:04:49.904Z,100355.94
2022-08-28T04:07:19.076Z,100352.84
2022-08-28T04:09:46.850Z,100355.19
2022-08-28T04:12:14.590Z,100361.72
2022-08-28T04:14:41.540Z,100361.84
2022-08-28T04:17:08.814Z,100356.16
2022-08-28T04:19:36.067Z,100356.34
2022-08-28T04:22:03.042Z,100359.53
2022-08-28T04:24:30.011Z,100364.47
2022-08-28T04:26:57.083Z,100360.84
2022-08-28T04:29:24.118Z,100361.00
2022-08-28T04:31:51.159Z,100361.50
2022-08-28T04:34:18.302Z,100370.50
2022-08-28T04:36:46.204Z,100365.16
2022-08-28T04:39:13.628Z,100362.47
2022-08-28T04:41:40.821Z,100362.47
2022-08-28T04:44:08.639Z,100364.09
2022-08-28T04:46:36.929Z,100355.06
2022-08-28T04:49:04.531Z,100366.88
2022-08-28T04:51:32.327Z,100359.78
2022-08-28T04:53:59.818Z,100365.88
2022-08-28T04:56:27.200Z,100368.41
2022-08-28T04:58:54.714Z,100368.53
2022-08-28T05:01:24.710Z,100370.22
2022-08-28T05:03:57.811Z,100375.41
2022-08-28T05:06:27.101Z,100367.63
2022-08-28T05:08:57.484Z,100362.25
2022-08-28T05:11:34.069Z,100368.97
2022-08-28T05:14:09.631Z,100369.06
2022-08-28T05:16:57.634Z,100370.88
2022-08-28T05:19:27.136Z,100366.56
2022-08-28T05:21:54.399Z,100359.75
2022-08-28T05:24:22.386Z,100372.28
2022-08-28T05:26:49.552Z,100374.06
2022-08-28T05:29:17.053Z,100378.47
2022-08-28T05:31:44.417Z,100378.22
2022-08-28T05:34:13.742Z,100373.47
2022-08-28T05:36:40.951Z,100370.06
2022-08-28T05:39:11.235Z,100367.16
2022-08-28T05:41:41.018Z,100373.38
2022-08-28T05:44:11.045Z,100369.41
2022-08-28T05:46:40.831Z,100381.59
2022-08-28T05:49:10.311Z,100379.44
2022-08-28T05:51:40.421Z,100385.09
2022-08-28T05:54:07.599Z,100381.50
2022-08-28T05:56:37.542Z,100381.72
2022-08-28T05:59:06.038Z,100384.34
2022-08-28T06:01:37.301Z,100382.91
2022-08-28T06:04:17.868Z,100378.94
2022-08-28T06:06:45.363Z,100375.50
2022-08-28T06:09:16.595Z,100376.56
2022-08-28T06:11:46.093Z,100379.31
2022-08-28T06:14:15.779Z,100380.00
2022-08-28T06:16:47.172Z,100379.94
2022-08-28T06:19:14.637Z,100380.97
2022-08-28T06:21:41.780Z,100374.22
2022-08-28T06:24:10.326Z,100382.22
2022-08-28T06:26:37.281Z,100385.81
2022-08-28T06:29:07.935Z,100383.38
2022-08-28T06:31:35.230Z,100384.09
2022-08-28T06:34:02.397Z,100381.75
2022-08-28T06:36:31.766Z,100391.56
2022-08-28T06:39:00.248Z,100392.03
2022-08-28T06:41:28.049Z,100382.44
2022-08-28T06:43:57.158Z,100385.56
2022-08-28T06:46:25.286Z,100390.84
2022-08-28T06:48:52.957Z,100393.31
2022-08-28T06:51:20.227Z,100381.75
2022-08-28T06:53:50.085Z,100393.91
2022-08-28T06:56:26.886Z,100386.75
2022-08-28T06:58:56.961Z,100387.31
2022-08-28T07:01:33.393Z,100391.38
2022-08-28T07:04:18.487Z,100380.44
2022-08-28T07:06:47.134Z,100376.72
2022-08-28T07:09:15.437Z,100383.06
2022-08-28T07:11:46.747Z,100382.22
2022-08-28T07:14:13.773Z,100384.88
2022-08-28T07:16:41.362Z,100382.69
2022-08-28T07:19:10.445Z,100376.88
2022-08-28T07:21:40.057Z,100380.75
2022-08-28T07:24:09.262Z,100380.03
2022-08-28T07:26:36.783Z,100386.91
2022-08-28T07:29:10.128Z,100377.16
2022-08-28T07:31:41.283Z,100382.63
2022-08-28T07:34:10.522Z,100379.97
2022-08-28T07:36:38.323Z,100380.78
2022-08-28T07:39:05.920Z,100385.38
2022-08-28T07:41:35.600Z,100385.03
2022-08-28T07:44:21.300Z,100384.34
2022-08-28T07:46:48.222Z,100388.06
2022-08-28T07:49:18.442Z,100387.47
2022-08-28T07:51:46.786Z,100379.13
2022-08-28T07:54:15.676Z,100376.03
2022-08-28T07:56:46.048Z,100380.53
2022-08-28T07:59:16.682Z,100386.94
2022-08-28T08:01:46.765Z,100383.22
2022-08-28T08:04:16.391Z,100384.34
2022-08-28T08:06:44.025Z,100385.72
2022-08-28T08:09:13.579Z,100387.31
2022-08-28T08:11:40.705Z,100390.78
2022-08-28T08:14:08.495Z,100390.06
2022-08-28T08:16:39.076Z,100380.63
2022-08-28T08:19:09.987Z,100381.16
2022-08-28T08:21:38.236Z,100390.81
2022-08-28T08:24:05.736Z,100386.13
2022-08-28T08:26:33.214Z,100388.44
2022-08-28T08:29:00.422Z,100384.13
2022-08-28T08:31:32.763Z,100383.34
2022-08-28T08:34:02.651Z,100382.69
2022-08-28T08:36:32.366Z,100375.78
2022-08-28T08:39:00.506Z,100366.84
2022-08-28T08:41:51.926Z,100371.56
2022-08-28T08:44:40.253Z,100367.00
2022-08-28T08:47:14.144Z,100369.81
2022-08-28T08:49:56.247Z,100369.00
2022-08-28T08:52:34.844Z,100372.56
2022-08-28T08:55:25.881Z,100367.09
2022-08-28T08:58:08.868Z,100370.88
2022-08-28T09:00:51.061Z,100376.88
2022-08-28T09:03:25.737Z,100369.06
2022-08-28T09:05:58.355Z,100371.13
2022-08-28T09:08:48.128Z,100372.00
2022-08-28T09:11:40.517Z,100371.41
2022-08-28T09:14:10.553Z,100372.28
2022-08-28T09:16:42.508Z,100380.66
2022-08-28T09:19:14.920Z,100374.09
2022-08-28T09:21:44.910Z,100374.41
2022-08-28T09:24:32.631Z,100375.28
2022-08-28T09:27:11.071Z,100381.03
2022-08-28T09:29:47.406Z,100377.63
2022-08-28T09:32:21.788Z,100377.03
2022-08-28T09:35:28.017Z,100370.78
2022-08-28T09:37:56.463Z,100365.94
2022-08-28T09:40:47.678Z,100374.97
2022-08-28T09:43:28.361Z,100372.38
2022-08-28T09:46:01.593Z,100369.78
2022-08-28T09:48:40.588Z,100376.22
2022-08-28T09:51:27.040Z,100365.41
2022-08-28T09:53:59.484Z,100365.13
2022-08-28T09:56:35.692Z,100373.75
2022-08-28T09:59:07.003Z,100362.19
2022-08-28T10:01:46.493Z,100369.31
2022-08-28T10:04:34.710Z,100369.16
2022-08-28T10:07:20.216Z,100358.22
2022-08-28T10:10:36.680Z,100359.03
2022-08-28T10:13:31.379Z,100364.22
2022-08-28T10:16:23.119Z,100359.56
2022-08-28T10:19:10.508Z,100356.56
2022-08-28T10:21:50.899Z,100350.84
2022-08-28T10:24:47.248Z,100350.25
2022-08-28T10:27:51.567Z,100360.25
2022-08-28T10:30:22.993Z,100342.94
2022-08-28T10:32:58.337Z,100352.25
2022-08-28T10:35:45.211Z,100338.56
2022-08-28T10:38:16.937Z,100346.44
2022-08-28T10:41:21.626Z,100350.63
2022-08-28T10:43:49.881Z,100346.50
2022-08-28T10:46:25.274Z,100344.22
2022-08-28T10:49:06.972Z,100343.41
2022-08-28T10:51:43.624Z,100341.84
2022-08-28T10:54:37.192Z,100343.84
2022-08-28T10:57:25.770Z,100348.88
2022-08-28T10:59:54.318Z,100340.09
2022-08-28T11:02:24.588Z,100337.41
2022-08-28T11:04:58.231Z,100341.69
2022-08-28T11:07:40.439Z,100339.66
2022-08-28T11:10:45.647Z,100333.47
2022-08-28T11:13:13.480Z,100344.53
2022-08-28T11:15:52.381Z,100340.31
2022-08-28T11:18:31.879Z,100346.78
2022-08-28T11:21:04.953Z,100329.72
2022-08-28T11:23:47.837Z,100343.28
2022-08-28T11:26:28.981Z,100332.63
2022-08-28T11:28:56.189Z,100331.59
2022-08-28T11:31:31.812Z,100333.13
2022-08-28T11:34:00.264Z,100327.19
2022-08-28T11:36:29.420Z,100328.00
2022-08-28T11:38:56.439Z,100338.63
2022-08-28T11:41:24.480Z,100328.84
2022-08-28T11:44:09.709Z,100332.47
2022-08-28T11:46:39.593Z,100326.97
2022-08-28T11:49:26.680Z,100336.19
2022-08-28T11:52:03.691Z,100330.59
2022-08-28T11:54:37.828Z,100326.50
2022-08-28T11:57:14.336Z,100330.34
2022-08-28T12:00:22.768Z,100319.81
2022-08-28T12:03:08.978Z,100328.97
2022-08-28T12:05:40.217Z,100320.25
2022-08-28T12:08:09.219Z,100323.97
2022-08-28T12:10:38.947Z,100315.22
2022-08-28T12:13:08.153Z,100316.31
2022-08-28T12:15:35.174Z,100309.84
2022-08-28T12:18:05.245Z,100315.25
2022-08-28T12:20:50.352Z,100314.94
2022-08-28T12:23:40.552Z,100312.97
2022-08-28T12:26:07.487Z,100314.88
2022-08-28T12:28:45.196Z,100316.19
2022-08-28T12:32:01.253Z,100310.56
2022-08-28T12:34:53.090Z,100309.28
2022-08-28T12:37:50.966Z,100312.66
2022-08-28T12:40:37.339Z,100317.03
2022-08-28T12:43:10.332Z,100313.81
2022-08-28T12:46:19.019Z,100318.13
2022-08-28T12:48:51.674Z,100321.31
2022-08-28T12:51:31.000Z,100315.59
2022-08-28T12:54:00.926Z,100311.47
2022-08-28T12:56:34.113Z,100305.47
2022-08-28T12:59:35.315Z,100303.88
2022-08-28T13:02:05.900Z,100296.78
2022-08-28T13:04:35.143Z,100303.72
2022-08-28T13:07:14.115Z,100304.63
2022-08-28T13:09:52.794Z,100305.47
2022-08-28T13:12:55.145Z,100304.44
2022-08-28T13:15:48.900Z,100306.31
2022-08-28T13:18:39.415Z,100309.22
2022-08-28T13:21:32.820Z,100300.88
2022-08-28T13:24:21.451Z,100306.59
2022-08-28T13:26:50.844Z,100305.25
2022-08-28T13:29:23.361Z,100299.16
2022-08-28T13:32:15.093Z,100308.81
2022-08-28T13:34:46.040Z,100299.44
2022-08-28T13:37:54.435Z,100300.88
2022-08-28T13:43:15.678Z,100307.38
2022-08-28T13:45:45.996Z,100316.47
2022-08-28T13:48:19.308Z,100307.03
2022-08-28T13:50:51.804Z,100314.59
2022-08-28T13:53:20.840Z,100316.44
2022-08-28T13:55:49.846Z,100311.38
2022-08-28T13:58:17.251Z,100316.34
2022-08-28T14:00:47.612Z,100318.69
2022-08-28T14:03:33.516Z,100308.59
2022-08-28T14:06:00.968Z,100306.09
2022-08-28T14:08:27.903Z,100315.91
2022-08-28T14:10:55.066Z,100309.84
2022-08-28T14:13:23.419Z,100304.22
2022-08-28T14:15:50.346Z,100305.34
2022-08-28T14:18:18.263Z,100310.44
2022-08-28T14:20:45.188Z,100305.50
2022-08-28T14:23:12.602Z,100299.41
2022-08-28T14:25:44.782Z,100299.78
2022-08-28T14:28:14.454Z,100312.09
2022-08-28T14:30:46.128Z,100308.97
2022-08-28T14:33:15.418Z,100315.03
2022-08-28T14:35:42.840Z,100301.78
2022-08-28T14:38:09.936Z,100315.31
2022-08-28T14:40:42.902Z,100303.47
2022-08-28T14:43:11.513Z,100308.91
2022-08-28T14:45:46.720Z,100313.88
2022-08-28T14:48:15.809Z,100324.09
2022-08-28T14:50:44.430Z,100315.63
2022-08-28T14:53:13.792Z,100308.81
2022-08-28T14:55:46.317Z,100319.56
2022-08-28T14:58:14.436Z,100324.41
2022-08-28T15:00:44.770Z,100327.56
2022-08-28T15:03:12.547Z,100314.53
2022-08-28T15:05:41.226Z,100318.59
2022-08-28T15:08:09.912Z,100314.00
2022-08-28T15:10:42.367Z,100310.50
2022-08-28T15:13:10.797Z,100320.66
2022-08-28T15:15:42.654Z,100317.84
2022-08-28T15:18:11.799Z,100320.47
2022-08-28T15:20:41.484Z,100318.72
2022-08-28T15:23:09.846Z,100327.13
2022-08-28T15:25:37.078Z,100314.81
2022-08-28T15:28:04.567Z,100319.53
2022-08-28T15:30:31.713Z,100319.47
2022-08-28T15:32:58.743Z,100312.81
2022-08-28T15:35:25.685Z,100310.16
2022-08-28T15:37:53.655Z,100312.66
2022-08-28T15:40:40.281Z,100305.31
2022-08-28T15:43:07.456Z,100311.28
2022-08-28T15:45:38.603Z,100302.28
2022-08-28T15:48:05.931Z,100299.41
2022-08-28T15:50:33.027Z,100299.28
2022-08-28T15:53:00.131Z,100304.66
2022-08-28T15:55:27.533Z,100304.66
2022-08-28T15:57:55.277Z,100308.13
2022-08-28T16:00:23.226Z,100311.97
2022-08-28T16:02:50.216Z,100314.16
2022-08-28T16:05:17.667Z,100307.28
2022-08-28T16:07:44.938Z,100305.75
2022-08-28T16:10:13.903Z,100317.31
2022-08-28T16:12:41.246Z,100314.16
2022-08-28T16:15:09.111Z,100312.44
2022-08-28T16:17:36.367Z,100326.31
2022-08-28T16:20:12.268Z,100325.38
2022-08-28T16:22:41.267Z,100327.50
2022-08-28T16:25:09.830Z,100332.44
2022-08-28T16:27:36.746Z,100336.44
2022-08-28T16:30:05.679Z,100334.56
2022-08-28T16:32:32.907Z,100331.56
2022-08-28T16:34:59.837Z,100341.81
2022-08-28T16:37:39.777Z,100340.44
2022-08-28T16:40:08.971Z,100347.13
2022-08-28T16:42:36.418Z,100348.69
2022-08-28T16:45:04.760Z,100351.59
2022-08-28T16:47:33.314Z,100343.50
2022-08-28T16:50:02.260Z,100349.13
2022-08-28T16:52:29.188Z,100359.78
2022-08-28T16:54:56.137Z,100356.25
2022-08-28T16:57:23.879Z,100355.81
2022-08-28T16:59:53.072Z,100358.38
2022-08-28T17:02:26.672Z,100354.03
2022-08-28T17:04:56.087Z,100353.31
2022-08-28T17:07:23.148Z,100359.00
2022-08-28T17:09:50.106Z,100366.06
2022-08-28T17:12:17.388Z,100374.09
2022-08-28T17:14:45.035Z,100377.59
2022-08-28T17:17:12.194Z,100383.16
2022-08-28T17:19:39.736Z,100387.06
2022-08-28T17:22:27.343Z,100393.78
2022-08-28T17:24:54.962Z,100395.78
2022-08-28T17:27:23.602Z,100395.84
2022-08-28T17:29:50.738Z,100402.81
2022-08-28T17:32:17.771Z,100410.50
2022-08-28T17:34:45.131Z,100410.38
2022-08-28T17:37:12.159Z,100416.50
2022-08-28T17:39:39.276Z,100415.13
2022-08-28T17:42:06.331Z,100426.88
2022-08-28T17:44:35.279Z,100420.84
2022-08-28T17:47:02.597Z,100418.47
2022-08-28T17:49:29.762Z,100426.81
2022-08-28T17:51:57.043Z,100437.16
2022-08-28T17:54:24.535Z,100428.03
2022-08-28T17:56:55.922Z,100434.19
2022-08-28T17:59:24.910Z,100439.16
2022-08-28T18:01:52.185Z,100443.63
2022-08-28T18:04:24.193Z,100433.53
2022-08-28T18:06:54.508Z,100447.09
2022-08-28T18:09:22.863Z,100450.28
2022-08-28T18:11:50.509Z,100453.22
2022-08-28T18:14:17.635Z,100453.22
2022-08-28T18:16:45.195Z,100456.63
2022-08-28T18:19:13.947Z,100456.88
2022-08-28T18:21:41.395Z,100455.13
2022-08-28T18:24:09.296Z,100460.06
2022-08-28T18:26:36.910Z,100459.72
2022-08-28T18:29:04.280Z,100455.16
2022-08-28T18:31:32.365Z,100463.06
2022-08-28T18:33:59.603Z,100463.66
2022-08-28T18:36:26.833Z,100467.94
2022-08-28T18:38:54.195Z,100469.78
2022-08-28T18:41:22.128Z,100468.47
2022-08-28T18:43:57.889Z,100473.16
2022-08-28T18:46:31.908Z,100474.00
2022-08-28T18:48:59.469Z,100469.69
2022-08-28T18:51:26.645Z,100470.94
2022-08-28T18:53:53.873Z,100474.00
2022-08-28T18:56:20.787Z,100471.78
2022-08-28T18:58:48.961Z,100476.97
2022-08-28T19:01:16.144Z,100478.34
2022-08-28T19:03:43.232Z,100473.38
2022-08-28T19:06:14.490Z,100473.25
2022-08-28T19:08:42.215Z,100473.63
2022-08-28T19:11:11.965Z,100478.34
2022-08-28T19:13:40.113Z,100479.75
2022-08-28T19:16:07.738Z,100476.06
2022-08-28T19:18:34.928Z,100485.41
2022-08-28T19:21:14.985Z,100480.50
2022-08-28T19:23:44.604Z,100485.03
2022-08-28T19:26:22.694Z,100485.31
2022-08-28T19:28:50.681Z,100492.00
2022-08-28T19:31:17.963Z,100494.75
2022-08-28T19:33:47.134Z,100495.56
2022-08-28T19:36:14.761Z,100495.06
2022-08-28T19:38:42.449Z,100491.09
2022-08-28T19:41:11.242Z,100502.75
2022-08-28T19:43:42.733Z,100501.09
2022-08-28T19:46:19.831Z,100501.31
2022-08-28T19:48:52.405Z,100500.28
2022-08-28T19:51:23.468Z,100495.97
2022-08-28T19:53:57.407Z,100500.78
2022-08-28T19:56:27.545Z,100496.19
2022-08-28T19:58:59.268Z,100498.44
2022-08-28T20:01:31.915Z,100492.00
2022-08-28T20:03:59.713Z,100503.56
2022-08-28T20:06:27.278Z,100501.09
2022-08-28T20:08:54.301Z,100494.16
2022-08-28T20:11:25.351Z,100495.03
2022-08-28T20:13:59.218Z,100497.56
2022-08-28T20:16:27.993Z,100498.19
2022-08-28T20:18:55.826Z,100498.38
2022-08-28T20:21:37.270Z,100500.78
2022-08-28T20:24:11.829Z,100501.56
2022-08-28T20:26:39.018Z,100499.44
2022-08-28T20:29:08.633Z,100498.56
2022-08-28T20:31:37.595Z,100499.25
2022-08-28T20:34:04.634Z,100496.28
2022-08-28T20:36:31.704Z,100499.44
2022-08-28T20:38:58.697Z,100502.75
2022-08-28T20:41:25.669Z,100509.88
2022-08-28T20:43:52.889Z,100506.00
2022-08-28T20:46:20.230Z,100508.31
2022-08-28T20:48:47.436Z,100506.00
2022-08-28T20:51:14.348Z,100504.50
2022-08-28T20:53:41.299Z,100504.63
2022-08-28T20:56:10.530Z,100503.88
2022-08-28T20:58:38.133Z,100503.59
2022-08-28T21:01:05.853Z,100507.41
2022-08-28T21:03:32.978Z,100510.84
2022-08-28T21:05:59.954Z,100516.13
2022-08-28T21:08:26.892Z,100509.47
2022-08-28T21:10:54.150Z,100507.06
2022-08-28T21:13:21.848Z,100509.22
2022-08-28T21:15:48.853Z,100515.13
2022-08-28T21:18:16.071Z,100511.09
2022-08-28T21:20:43.222Z,100512.91
2022-08-28T21:23:10.585Z,100511.09
2022-08-28T21:25:40.410Z,100509.69
2022-08-28T21:28:07.576Z,100509.25
2022-08-28T21:30:34.852Z,100506.53
2022-08-28T21:33:01.905Z,100508.06
2022-08-28T21:35:29.250Z,100505.25
2022-08-28T21:37:56.185Z,100509.97
2022-08-28T21:40:23.333Z,100511.50
2022-08-28T21:42:50.419Z,100514.19
2022-08-28T21:45:18.418Z,100509.88
2022-08-28T21:47:45.375Z,100509.88
2022-08-28T21:50:12.510Z,100513.22
2022-08-28T21:52:40.061Z,100515.06
2022-08-28T21:55:10.921Z,100517.97
2022-08-28T21:57:37.955Z,100512.81
2022-08-28T22:00:23.486Z,100509.38
2022-08-28T22:02:50.543Z,100509.78
2022-08-28T22:05:17.642Z,100508.16
2022-08-28T22:07:45.185Z,100509.56
2022-08-28T22:10:12.409Z,100508.69
2022-08-28T22:12:39.393Z,100511.94
2022-08-28T22:15:06.781Z,100512.94
2022-08-28T22:17:33.793Z,100515.75
2022-08-28T22:20:00.720Z,100512.59
2022-08-28T22:22:45.999Z,100507.94
2022-08-28T22:25:13.024Z,100501.16
2022-08-28T22:27:39.951Z,100505.03
2022-08-28T22:30:07.440Z,100504.94
2022-08-28T22:32:34.490Z,100509.56
2022-08-28T22:35:01.469Z,100507.84
2022-08-28T22:37:28.452Z,100506.56
2022-08-28T22:39:55.521Z,100505.56
2022-08-28T22:42:23.172Z,100507.66
2022-08-28T22:44:50.242Z,100503.97
2022-08-28T22:47:18.867Z,100503.53
2022-08-28T22:49:46.157Z,100499.41
2022-08-28T22:52:13.239Z,100499.66
2022-08-28T22:54:40.179Z,100501.56
2022-08-28T22:57:07.392Z,100502.53
2022-08-28T22:59:34.871Z,100492.41
2022-08-28T23:02:01.816Z,100498.78
2022-08-28T23:04:28.816Z,100501.16
2022-08-28T23:06:55.923Z,100508.66
2022-08-28T23:09:22.884Z,100506.06
2022-08-28T23:11:49.886Z,100504.53
2022-08-28T23:14:16.968Z,100497.19
2022-08-28T23:16:44.702Z,100497.81
2022-08-28T23:19:13.329Z,100492.75
2022-08-28T23:21:43.998Z,100489.78
2022-08-28T23:24:12.863Z,100494.69
2022-08-28T23:26:40.270Z,100489.75
2022-08-28T23:29:07.180Z,100492.03
2022-08-28T23:31:34.294Z,100495.53
2022-08-28T23:34:01.929Z,100495.31
2022-08-28T23:36:29.109Z,100494.69
2022-08-28T23:38:56.637Z,100498.34
2022-08-28T23:41:24.601Z,100498.66
2022-08-28T23:43:51.954Z,100506.38
2022-08-28T23:46:20.802Z,100510.13
2022-08-28T23:48:49.514Z,100508.69
2022-08-28T23:51:17.091Z,100513.53
2022-08-28T23:53:44.499Z,100504.16
2022-08-28T23:56:12.979Z,100504.16
2022-08-28T23:58:40.428Z,100510.31
